Time;durP1;ratioP1;P1;durP2;ratioP2;P2;SDS_P1;SDS_P2;PMS_P1;PMS_P2;Temp;Humidity;BMP_temperature;BMP_pressure;BME280_temperature;BME280_humidity;BME280_pressure;Samples;Min_cycle;Max_cycle;Signal;HPM_P1;HPM_P2
2024/03/09 00:03:27;;;;;;;14.77;10.97;;;2.20;99.90;;;2.81;93.25;96887.50;10343644;28;20243;-66
2024/03/09 00:08:35;;;;;;;13.73;11.67;;;2.30;99.90;;;2.92;93.11;96884.97;10346083;28;20240;-67
2024/03/09 00:13:41;;;;;;;15.07;12.47;;;2.30;99.90;;;3.04;93.19;96877.38;10342173;28;20244;-66
2024/03/09 00:18:44;;;;;;;16.63;13.23;;;2.50;99.90;;;3.09;92.07;96875.13;10341319;28;20227;-66
2024/03/09 00:23:50;;;;;;;16.47;11.77;;;2.50;99.90;;;3.01;92.80;96872.09;10344755;28;20234;-66
2024/03/09 00:28:55;;;;;;;13.50;11.30;;;2.30;99.90;;;2.86;93.22;96887.06;10348187;28;20234;-65
2024/03/09 00:33:58;;;;;;;16.80;12.90;;;2.20;99.90;;;2.89;93.71;96881.31;10345764;28;20733;-65
2024/03/09 00:39:02;;;;;;;12.60;11.20;;;2.20;99.90;;;2.82;94.62;96885.06;10345741;28;20651;-66
2024/03/09 00:44:06;;;;;;;13.57;11.67;;;2.10;99.90;;;2.73;95.40;96878.50;10342818;28;20310;-64
2024/03/09 00:49:09;;;;;;;12.47;10.50;;;2.00;99.90;;;2.66;95.13;96875.56;10340869;28;20234;-65
2024/03/09 00:54:13;;;;;;;13.37;10.97;;;2.00;99.90;;;2.66;94.60;96867.97;10341646;28;20604;-64
2024/03/09 00:59:17;;;;;;;11.67;10.27;;;1.90;99.90;;;2.52;94.88;96883.78;10343147;28;20232;-66
2024/03/09 01:04:20;;;;;;;12.80;10.90;;;1.80;99.90;;;2.51;95.19;96876.09;10343664;28;20748;-66
2024/03/09 01:09:25;;;;;;;12.77;10.80;;;1.80;99.90;;;2.41;96.18;96869.53;10342384;28;20303;-65
2024/03/09 01:14:30;;;;;;;14.17;11.77;;;1.80;99.90;;;2.46;96.17;96868.19;10341153;28;20234;-66
2024/03/09 01:19:33;;;;;;;13.47;11.33;;;1.80;99.90;;;2.46;95.90;96863.13;10346345;28;20230;-67
2024/03/09 01:24:37;;;;;;;13.53;11.97;;;1.70;99.90;;;2.54;96.15;96874.66;10346238;28;20313;-66
2024/03/09 01:29:47;;;;;;;15.43;11.20;;;1.80;99.90;;;2.64;96.65;96873.69;10346308;28;20232;-65
2024/03/09 01:34:50;;;;;;;15.13;12.00;;;1.80;99.90;;;2.44;97.31;96872.25;10345509;28;20325;-65
2024/03/09 01:39:53;;;;;;;15.00;12.37;;;1.80;99.90;;;2.41;97.32;96872.03;10347595;28;20250;-67
2024/03/09 01:44:59;;;;;;;15.70;12.50;;;1.70;99.90;;;2.38;97.00;96860.09;10344250;28;20249;-66
2024/03/09 01:50:04;;;;;;;14.73;11.57;;;1.70;99.90;;;2.44;95.89;96860.53;10346912;28;20306;-71
2024/03/09 01:55:10;;;;;;;14.63;11.30;;;1.60;99.90;;;2.23;96.89;96857.34;10347843;28;20815;-65
2024/03/09 02:00:17;;;;;;;12.90;11.27;;;1.50;99.90;;;2.25;97.19;96847.34;10344875;28;20234;-65
2024/03/09 02:05:20;;;;;;;12.67;11.20;;;1.60;99.90;;;2.10;97.76;96849.66;10351849;28;20237;-65
2024/03/09 02:10:23;;;;;;;12.60;10.60;;;1.40;99.90;;;1.98;97.25;96857.19;10346604;28;20236;-67
2024/03/09 02:15:29;;;;;;;13.47;10.97;;;1.40;99.90;;;2.09;97.75;96849.53;10347787;28;20279;-66
2024/03/09 02:20:33;;;;;;;15.83;11.40;;;1.50;99.90;;;2.17;98.11;96849.31;10346977;28;20229;-65
2024/03/09 02:25:39;;;;;;;16.27;12.20;;;1.50;99.90;;;2.35;97.17;96861.53;10347205;28;20241;-65
2024/03/09 02:30:48;;;;;;;14.87;10.47;;;1.60;99.90;;;2.25;97.42;96853.28;10343724;28;20241;-65
2024/03/09 02:35:52;;;;;;;12.83;9.93;;;1.50;99.90;;;2.19;98.73;96857.00;10348670;28;20313;-66
2024/03/09 02:40:56;;;;;;;14.80;11.20;;;1.50;99.90;;;2.21;98.65;96860.53;10342615;28;20808;-66
2024/03/09 02:45:59;;;;;;;13.47;11.17;;;1.50;99.90;;;2.14;98.91;96856.66;10344432;28;20226;-66
2024/03/09 02:51:02;;;;;;;14.50;12.07;;;1.50;99.90;;;2.20;98.35;96849.56;10346815;28;20230;-66
2024/03/09 02:56:08;;;;;;;14.27;11.50;;;1.50;99.90;;;2.29;98.27;96838.38;10346506;28;20588;-66
2024/03/09 03:01:11;;;;;;;15.00;10.57;;;1.60;99.90;;;2.17;97.16;96834.19;10340727;28;20714;-66
2024/03/09 03:06:18;;;;;;;13.17;11.40;;;1.40;99.90;;;2.10;98.21;96847.13;10343657;28;20231;-65
2024/03/09 03:11:23;;;;;;;13.13;11.63;;;1.30;99.90;;;1.99;98.90;96826.19;10344505;28;20341;-66
2024/03/09 03:16:27;;;;;;;13.37;10.77;;;1.40;99.90;;;2.04;98.65;96826.53;10343220;28;20276;-65
2024/03/09 03:21:31;;;;;;;14.93;12.27;;;1.40;99.90;;;2.03;99.14;96830.69;10344660;28;20237;-66
2024/03/09 03:26:35;;;;;;;17.73;12.03;;;1.50;99.90;;;2.11;98.70;96818.63;10342425;28;20226;-64
2024/03/09 03:31:41;;;;;;;15.90;12.47;;;1.50;99.90;;;2.20;100.00;96804.19;10343342;28;20262;-65
2024/03/09 03:36:45;;;;;;;15.23;11.23;;;1.70;99.90;;;2.26;99.32;96783.56;10344252;28;20236;-66
2024/03/09 03:41:52;;;;;;;16.03;12.50;;;1.70;99.90;;;2.30;100.00;96770.41;10345348;28;20303;-65
2024/03/09 03:46:55;;;;;;;13.80;11.07;;;1.70;99.90;;;2.55;97.92;96792.31;10340851;28;20275;-66
2024/03/09 03:51:58;;;;;;;16.07;11.93;;;1.80;99.90;;;2.20;97.87;96789.06;10345553;28;20587;-66
2024/03/09 03:57:03;;;;;;;17.57;13.20;;;1.60;99.90;;;2.19;99.10;96777.22;10342448;28;20299;-66
2024/03/09 04:02:07;;;;;;;15.10;12.50;;;1.70;99.90;;;2.32;99.42;96768.91;10344141;28;20777;-67
2024/03/09 04:07:11;;;;;;;22.57;16.67;;;1.80;99.90;;;2.43;99.59;96760.44;10345046;28;20674;-66
2024/03/09 04:12:15;;;;;;;15.97;12.40;;;1.90;99.90;;;2.57;98.86;96760.50;10343384;28;20620;-65
2024/03/09 04:17:18;;;;;;;17.00;13.50;;;2.00;99.90;;;2.60;98.05;96768.28;10343190;28;20250;-64
2024/03/09 04:22:21;;;;;;;14.87;13.00;;;2.00;99.90;;;2.51;97.42;96776.09;10347638;28;20238;-66
2024/03/09 04:27:26;;;;;;;16.60;13.00;;;1.90;99.90;;;2.41;99.09;96772.06;10340857;28;20228;-65
2024/03/09 04:32:30;;;;;;;16.80;13.87;;;1.80;99.90;;;2.32;99.19;96768.91;10344342;28;20605;-65
2024/03/09 04:37:34;;;;;;;19.63;14.10;;;1.80;99.90;;;2.39;99.38;96762.63;10351430;28;20710;-66
2024/03/09 04:42:39;;;;;;;18.73;15.20;;;1.90;99.90;;;2.52;98.93;96761.81;10353071;28;20230;-66
2024/03/09 04:47:43;;;;;;;18.83;13.30;;;2.10;99.90;;;2.65;98.77;96757.75;10351316;28;20381;-65
2024/03/09 04:52:48;;;;;;;18.97;15.47;;;2.20;99.90;;;2.84;98.25;96761.56;10351068;28;20233;-65
2024/03/09 04:57:55;;;;;;;19.60;14.67;;;2.30;99.90;;;2.92;97.31;96747.81;10351024;28;20225;-65
2024/03/09 05:02:58;;;;;;;20.03;14.87;;;2.40;99.90;;;2.97;97.49;96732.97;10347762;28;20743;-66
2024/03/09 05:08:02;;;;;;;17.27;13.37;;;2.40;99.90;;;3.14;97.41;96733.31;10341971;28;20237;-67
2024/03/09 05:13:07;;;;;;;14.27;11.83;;;2.50;99.90;;;3.29;95.86;96730.97;10348994;28;20716;-65
2024/03/09 05:18:11;;;;;;;17.83;14.97;;;2.40;99.90;;;2.91;96.80;96733.41;10346867;28;20226;-66
2024/03/09 05:23:15;;;;;;;19.10;14.57;;;2.20;99.90;;;2.75;97.95;96711.34;10349579;28;20239;-67
2024/03/09 05:28:20;;;;;;;17.13;14.30;;;2.20;99.90;;;2.92;97.73;96710.84;10348861;28;20751;-65
2024/03/09 05:33:24;;;;;;;16.90;14.03;;;2.30;99.90;;;3.04;98.27;96717.47;10348308;28;20227;-65
2024/03/09 05:38:27;;;;;;;17.83;13.73;;;2.40;99.90;;;3.12;96.67;96712.16;10344800;28;20253;-65
2024/03/09 05:43:32;;;;;;;20.83;15.07;;;2.40;99.90;;;3.11;96.92;96710.41;10345995;28;20226;-64
2024/03/09 05:48:36;;;;;;;18.57;15.37;;;2.50;99.90;;;3.08;96.74;96705.16;10340563;28;20240;-66
2024/03/09 05:53:40;;;;;;;17.77;14.37;;;2.50;99.90;;;3.02;96.74;96701.34;10385830;22;20229;-69
2024/03/09 05:58:44;;;;;;;19.90;15.87;;;2.40;99.90;;;2.93;96.94;96691.50;10388470;28;20559;-67
2024/03/09 06:03:47;;;;;;;17.47;13.67;;;2.40;99.90;;;3.07;96.24;96693.31;10379571;28;20297;-67
2024/03/09 06:08:50;;;;;;;18.27;14.47;;;2.50;99.90;;;3.13;97.12;96688.66;10358319;28;20230;-69
2024/03/09 06:13:56;;;;;;;21.23;18.07;;;2.60;99.90;;;3.27;95.71;96689.56;10360687;28;20715;-70
2024/03/09 06:18:59;;;;;;;25.90;23.30;;;2.60;99.90;;;3.34;95.15;96695.91;10365575;28;20747;-66
2024/03/09 06:24:04;;;;;;;21.63;17.47;;;2.70;99.90;;;3.39;95.80;96690.38;10362609;28;20862;-66
2024/03/09 06:29:10;;;;;;;19.53;15.50;;;2.80;99.90;;;3.72;94.17;96684.88;10357173;28;20293;-66
2024/03/09 06:34:14;;;;;;;20.20;15.20;;;3.10;99.90;;;3.85;94.13;96682.34;10362540;28;20378;-67
2024/03/09 06:39:18;;;;;;;20.77;16.43;;;3.20;99.90;;;4.28;91.91;96690.09;10354217;28;20233;-66
2024/03/09 06:44:23;;;;;;;19.57;15.67;;;3.60;99.90;;;4.58;90.09;96685.16;10355735;28;20261;-68
2024/03/09 06:49:27;;;;;;;19.60;15.90;;;4.00;99.90;;;4.93;88.15;96695.75;10350262;28;20882;-69
2024/03/09 06:54:30;;;;;;;16.97;15.13;;;4.30;99.90;;;5.70;84.50;96694.28;10355301;28;20447;-68
2024/03/09 06:59:35;;;;;;;19.37;16.43;;;4.70;99.90;;;6.32;81.56;96700.34;10352197;28;20222;-67
2024/03/09 07:04:38;;;;;;;17.53;14.90;;;5.10;99.90;;;6.32;79.75;96717.19;10356405;28;20233;-66
2024/03/09 07:09:43;;;;;;;19.77;16.20;;;5.30;99.90;;;5.92;80.35;96706.47;10352122;28;20636;-69
2024/03/09 07:14:48;;;;;;;17.53;15.57;;;5.00;99.90;;;6.20;81.36;96707.25;10350742;28;20875;-66
2024/03/09 07:19:51;;;;;;;18.27;15.23;;;5.30;99.90;;;6.61;79.32;96697.59;10349021;28;20257;-66
2024/03/09 07:24:54;;;;;;;17.53;14.30;;;5.70;99.90;;;6.81;77.50;96702.06;10349273;28;20275;-70
2024/03/09 07:29:58;;;;;;;17.40;14.57;;;6.10;99.90;;;7.19;76.60;96696.44;10349012;28;20249;-67
2024/03/09 07:35:05;;;;;;;18.50;15.00;;;6.40;99.90;;;7.57;76.43;96683.88;10346260;28;20377;-67
2024/03/09 07:40:13;;;;;;;19.27;15.00;;;6.80;99.90;;;7.85;73.51;96696.28;10351776;28;20283;-67
2024/03/09 07:45:18;;;;;;;17.07;15.10;;;7.10;99.90;;;7.63;72.80;96687.59;10349885;28;20230;-69
2024/03/09 07:50:23;;;;;;;18.57;15.83;;;7.10;99.90;;;8.01;72.81;96686.06;10350513;28;20237;-68
2024/03/09 07:55:28;;;;;;;19.43;15.80;;;7.40;99.90;;;8.09;72.43;96684.72;10352444;28;20280;-67
2024/03/09 08:00:34;;;;;;;18.47;15.30;;;7.50;99.90;;;8.43;71.67;96678.69;10352215;28;20225;-67
2024/03/09 08:05:38;;;;;;;20.40;16.90;;;7.90;99.90;;;8.80;69.36;96685.47;10349759;28;20218;-69
2024/03/09 08:10:46;;;;;;;19.83;16.60;;;8.30;99.90;;;8.90;69.92;96672.34;10356089;28;20319;-67
2024/03/09 08:15:54;;;;;;;19.03;16.77;;;8.40;99.90;;;9.14;68.09;96676.75;10360305;28;20709;-66
2024/03/09 08:20:58;;;;;;;19.80;16.92;;;8.70;99.90;;;9.76;65.97;96678.53;10359405;28;20260;-66
2024/03/09 08:26:06;;;;;;;20.58;17.50;;;9.30;99.90;;;9.47;67.51;96662.91;10357585;28;20272;-66
2024/03/09 08:31:10;;;;;;;20.00;17.35;;;9.00;99.90;;;9.85;65.65;96660.16;10352586;28;20304;-65
2024/03/09 08:36:13;;;;;;;21.35;17.52;;;9.30;99.90;;;9.60;63.92;96660.84;10354434;28;20249;-67
2024/03/09 08:41:17;;;;;;;17.50;15.70;;;9.20;99.90;;;10.07;65.58;96661.88;10359766;28;20230;-64
2024/03/09 08:46:22;;;;;;;18.52;16.33;;;9.50;99.90;;;10.45;64.19;96654.88;10363391;28;21029;-62
2024/03/09 08:51:25;;;;;;;18.50;16.25;;;9.90;99.90;;;10.49;63.98;96651.63;10363856;28;20261;-62
2024/03/09 08:56:28;;;;;;;18.48;16.27;;;10.00;99.90;;;10.51;62.37;96644.88;10360931;28;20246;-63
2024/03/09 09:01:32;;;;;;;18.23;15.63;;;10.00;99.90;;;11.19;61.37;96636.28;10356710;28;20341;-63
2024/03/09 09:06:36;;;;;;;17.58;15.68;;;10.70;99.90;;;11.42;59.99;96633.66;10362558;28;20315;-63
2024/03/09 09:11:39;;;;;;;17.05;15.30;;;11.00;99.90;;;11.51;59.25;96641.63;10360011;28;20337;-64
2024/03/09 09:16:44;;;;;;;16.23;14.38;;;11.00;99.90;;;11.89;58.97;96635.22;10347645;28;20222;-66
2024/03/09 09:21:47;;;;;;;20.02;17.65;;;11.40;99.90;;;12.19;57.51;96626.78;10353375;28;20234;-65
2024/03/09 09:26:50;;;;;;;17.60;14.77;;;11.70;99.90;;;12.42;57.28;96622.34;10354323;28;20221;-65
2024/03/09 09:31:56;;;;;;;15.35;13.38;;;11.80;99.90;;;12.69;56.18;96623.97;10355506;28;20712;-67
2024/03/09 09:36:59;;;;;;;16.63;14.93;;;12.10;99.90;;;12.61;57.04;96613.47;10355309;28;20230;-64
2024/03/09 09:42:02;;;;;;;16.55;14.82;;;12.00;99.90;;;12.86;57.13;96604.78;10357394;28;20703;-66
2024/03/09 09:47:07;;;;;;;16.83;15.02;;;12.10;99.90;;;12.73;55.80;96602.69;10400505;28;20217;-65
2024/03/09 09:52:11;;;;;;;15.07;13.48;;;12.20;99.90;;;13.00;56.01;96592.34;10397696;28;20237;-66
2024/03/09 09:57:17;;;;;;;14.65;13.23;;;12.50;99.90;;;13.26;55.98;96585.38;10397626;28;20704;-65
2024/03/09 10:02:22;;;;;;;15.55;13.95;;;12.70;99.90;;;13.54;53.77;96586.94;10395542;28;20244;-65
2024/03/09 10:07:26;;;;;;;15.52;13.93;;;13.10;99.80;;;13.33;54.90;96574.41;10399876;28;20236;-65
2024/03/09 10:12:29;;;;;;;14.82;13.32;;;12.80;99.90;;;13.39;55.53;96569.47;10404464;28;20317;-65
2024/03/09 10:17:37;;;;;;;16.45;14.15;;;12.90;99.90;;;13.81;54.46;96560.19;10401589;28;20319;-64
2024/03/09 10:22:42;;;;;;;16.00;14.30;;;13.30;99.90;;;13.84;53.43;96561.13;10403950;28;20589;-65
2024/03/09 10:27:45;;;;;;;14.27;12.77;;;13.30;99.00;;;13.98;53.32;96559.72;10397905;28;20230;-64
2024/03/09 10:32:51;;;;;;;15.05;13.45;;;13.40;99.00;;;14.14;51.96;96557.53;10399402;28;20233;-64
2024/03/09 10:37:57;;;;;;;15.00;13.38;;;13.60;98.10;;;13.87;53.28;96561.19;10398815;28;20226;-65
2024/03/09 10:43:02;;;;;;;14.68;13.27;;;13.20;99.10;;;13.95;52.75;96553.66;10402489;28;20800;-65
2024/03/09 10:48:09;;;;;;;15.52;13.93;;;13.40;99.30;;;13.87;52.38;96535.50;10400692;28;20234;-65
2024/03/09 10:53:35;;;;;;;14.45;12.95;;;13.40;97.70;;;14.09;53.14;96530.84;10389979;28;20280;-65
2024/03/09 10:58:40;;;;;;;15.80;14.20;;;13.60;98.20;;;14.27;51.66;96518.38;10394935;28;20241;-65
2024/03/09 11:03:49;;;;;;;14.52;13.13;;;13.80;97.60;;;14.41;52.61;96509.25;10401770;28;20218;-64
2024/03/09 11:08:54;;;;;;;15.77;14.05;;;13.90;98.30;;;14.60;51.81;96496.81;10397005;28;20230;-65
2024/03/09 11:14:02;;;;;;;15.43;13.82;;;14.20;97.00;;;14.74;51.33;96476.50;10398034;28;20253;-65
2024/03/09 11:19:13;;;;;;;15.60;13.95;;;14.30;97.00;;;14.74;51.29;96466.22;10377006;28;20237;-66
2024/03/09 11:24:19;;;;;;;18.20;16.30;;;14.30;96.80;;;14.95;48.61;96455.41;10397667;28;20320;-65
2024/03/09 11:29:24;;;;;;;16.95;15.15;;;14.60;94.10;;;15.02;48.83;96447.84;10396422;28;20316;-65
2024/03/09 11:34:29;;;;;;;14.38;13.00;;;14.70;95.00;;;15.21;47.54;96420.66;10398815;28;20528;-65
2024/03/09 11:39:34;;;;;;;14.02;12.63;;;15.00;93.30;;;15.16;48.88;96413.72;10390297;28;20789;-66
2024/03/09 11:44:39;;;;;;;12.07;10.88;;;14.80;94.50;;;15.38;45.69;96412.34;10402834;28;20611;-65
2024/03/09 11:49:44;;;;;;;11.07;9.90;;;14.90;91.60;;;15.60;44.84;96408.38;10411272;28;20256;-64
2024/03/09 11:54:49;;;;;;;8.10;7.35;;;15.10;90.70;;;15.36;43.69;96403.72;10436201;22;20224;-65
2024/03/09 11:59:52;;;;;;;7.10;6.43;;;15.00;88.20;;;15.44;42.93;96405.56;10435218;28;20682;-66
2024/03/09 12:04:58;;;;;;;6.78;6.05;;;15.10;87.20;;;15.66;43.00;96401.59;10438031;28;20244;-66
2024/03/09 12:10:02;;;;;;;5.78;5.18;;;15.30;87.30;;;15.92;41.03;96404.53;10433716;28;20302;-66
2024/03/09 12:15:06;;;;;;;6.38;5.45;;;15.50;82.70;;;15.71;40.13;96405.13;10438256;28;20225;-66
2024/03/09 12:20:13;;;;;;;6.32;5.45;;;15.30;81.10;;;15.76;41.59;96394.88;10430048;28;20798;-65
2024/03/09 12:25:17;;;;;;;5.50;5.00;;;15.20;84.50;;;15.99;38.10;96390.00;10418109;28;20243;-65
2024/03/09 12:30:23;;;;;;;5.68;5.18;;;15.50;77.60;;;15.90;39.17;96379.59;10429856;28;20768;-65
2024/03/09 12:35:28;;;;;;;4.03;3.63;;;15.40;79.10;;;15.90;35.32;96383.03;10436766;28;20323;-65
2024/03/09 12:40:32;;;;;;;4.15;3.85;;;15.60;71.50;;;15.96;36.33;96389.97;10434146;28;20227;-66
2024/03/09 12:45:41;;;;;;;4.15;3.85;;;15.60;72.40;;;16.18;35.68;96384.22;10433180;28;20228;-65
2024/03/09 12:50:50;;;;;;;4.30;3.90;;;15.80;71.70;;;16.11;37.03;96379.88;10430964;28;20988;-65
2024/03/09 12:55:53;;;;;;;5.63;5.13;;;15.70;74.00;;;16.00;37.56;96376.28;10426007;28;20228;-65
2024/03/09 13:00:57;;;;;;;4.65;4.25;;;15.50;75.40;;;16.14;36.69;96385.06;10429609;28;20729;-65
2024/03/09 13:06:07;;;;;;;4.90;4.50;;;15.50;73.70;;;16.11;35.49;96386.69;10430032;28;20229;-65
2024/03/09 13:11:11;;;;;;;4.97;4.57;;;15.50;72.20;;;16.16;37.39;96378.19;10426812;28;20271;-65
2024/03/09 13:16:16;;;;;;;6.00;5.45;;;15.60;74.10;;;16.16;36.75;96373.03;10429485;28;20278;-66
2024/03/09 13:21:21;;;;;;;5.40;4.90;;;15.80;72.40;;;16.17;36.76;96366.19;10428068;28;20248;-65
2024/03/09 13:26:26;;;;;;;7.05;5.70;;;15.70;72.70;;;16.04;38.08;96352.28;10428731;28;20243;-66
2024/03/09 13:31:32;;;;;;;5.35;4.60;;;15.50;75.50;;;15.93;37.26;96356.44;10425286;28;20330;-65
2024/03/09 13:36:38;;;;;;;5.00;4.53;;;15.40;73.70;;;15.89;37.20;96355.53;10429962;28;20701;-65
2024/03/09 13:41:42;;;;;;;5.93;4.95;;;15.40;73.30;;;15.97;36.96;96361.66;10429729;28;20459;-66
2024/03/09 13:46:47;;;;;;;5.57;5.07;;;15.40;73.30;;;15.72;38.45;96364.78;10428396;28;20225;-65
2024/03/09 13:51:51;;;;;;;5.70;5.20;;;15.20;75.30;;;15.67;37.99;96354.38;10434001;28;20367;-65
2024/03/09 13:56:54;;;;;;;5.30;4.80;;;15.10;74.00;;;16.24;36.68;96349.06;10428248;28;20259;-66
2024/03/09 14:01:59;;;;;;;4.82;4.40;;;15.60;72.40;;;16.37;35.59;96340.59;10421494;28;20340;-65
2024/03/09 14:07:04;;;;;;;4.70;4.30;;;15.70;70.90;;;16.38;36.78;96342.31;10422941;28;20252;-65
2024/03/09 14:12:13;;;;;;;4.40;4.00;;;15.80;72.00;;;16.28;35.31;96336.22;10434308;28;20228;-66
2024/03/09 14:17:17;;;;;;;4.32;3.92;;;15.70;69.80;;;16.40;35.91;96333.75;10437023;28;20217;-65
2024/03/09 14:22:22;;;;;;;4.20;3.90;;;15.70;71.60;;;16.47;33.55;96320.91;10435545;28;20237;-65
2024/03/09 14:27:33;;;;;;;5.28;4.78;;;15.80;67.30;;;16.25;34.96;96327.56;10436692;28;20520;-65
2024/03/09 14:32:39;;;;;;;4.40;4.00;;;15.60;68.80;;;16.04;35.76;96326.50;10434466;28;20887;-65
2024/03/09 14:37:44;;;;;;;5.93;5.43;;;15.20;70.20;;;16.08;36.91;96309.34;10435163;28;20746;-65
2024/03/09 14:42:48;;;;;;;5.32;4.93;;;15.30;72.40;;;16.05;36.55;96307.59;10439749;28;20221;-65
2024/03/09 14:47:56;;;;;;;4.43;4.03;;;15.30;71.90;;;15.83;37.88;96295.34;10439459;28;20316;-66
2024/03/09 14:53:05;;;;;;;4.30;3.90;;;15.10;74.10;;;16.12;35.95;96308.53;10431204;28;20235;-66
2024/03/09 14:58:12;;;;;;;3.90;3.60;;;15.50;71.40;;;15.88;37.24;96298.81;10435275;28;20829;-66
2024/03/09 15:03:28;;;;;;;3.95;3.60;;;15.10;73.20;;;15.81;37.78;96289.31;10430891;28;20783;-66
2024/03/09 15:08:33;;;;;;;4.15;3.85;;;15.00;74.50;;;15.71;37.89;96286.63;10431158;28;20306;-66
2024/03/09 15:13:38;;;;;;;3.72;3.42;;;14.90;75.20;;;15.82;38.04;96278.16;10430594;28;20351;-65
2024/03/09 15:18:42;;;;;;;4.03;3.53;;;14.90;75.50;;;15.63;38.28;96275.34;10432530;28;20305;-66
2024/03/09 15:23:47;;;;;;;4.50;4.10;;;15.00;75.00;;;15.70;38.73;96271.16;10428886;28;20233;-66
2024/03/09 15:28:50;;;;;;;4.20;3.80;;;15.00;75.90;;;15.65;39.09;96271.09;10430945;28;20224;-66
2024/03/09 15:33:54;;;;;;;4.65;4.25;;;14.90;76.60;;;15.51;39.14;96280.34;10432049;28;20228;-66
2024/03/09 15:38:59;;;;;;;4.50;4.10;;;14.80;76.90;;;15.20;41.05;96273.94;10430566;28;20237;-66
2024/03/09 15:44:06;;;;;;;4.65;4.25;;;14.40;80.60;;;15.40;40.97;96269.91;10429152;28;20319;-68
2024/03/09 15:49:09;;;;;;;4.50;4.10;;;14.50;80.60;;;15.35;41.13;96260.41;10433102;28;20229;-66
2024/03/09 15:54:17;;;;;;;4.57;4.18;;;14.60;80.20;;;15.04;42.69;96265.16;10430753;28;20794;-66
2024/03/09 15:59:20;;;;;;;6.22;5.72;;;14.20;83.30;;;15.00;42.72;96263.38;10430104;28;20632;-66
2024/03/09 16:04:26;;;;;;;6.90;6.18;;;14.20;83.40;;;14.71;44.53;96252.66;10431743;28;20239;-66
2024/03/09 16:09:33;;;;;;;6.53;6.03;;;13.90;86.10;;;14.73;43.69;96259.56;10430281;28;20344;-66
2024/03/09 16:14:37;;;;;;;7.72;7.13;;;13.90;86.20;;;14.66;44.78;96257.75;10431664;28;20231;-66
2024/03/09 16:19:40;;;;;;;6.90;6.30;;;13.80;88.00;;;14.70;44.69;96244.09;10432909;28;20221;-65
2024/03/09 16:24:45;;;;;;;7.75;7.15;;;13.90;87.30;;;14.66;45.15;96247.47;10432073;28;20237;-65
2024/03/09 16:29:49;;;;;;;7.50;6.80;;;13.90;88.60;;;14.49;46.81;96248.88;10427472;28;20282;-66
2024/03/09 16:34:54;;;;;;;6.25;5.65;;;13.70;90.70;;;14.14;48.33;96241.47;10437631;28;20225;-66
2024/03/09 16:39:59;;;;;;;6.78;5.97;;;13.40;91.90;;;13.98;48.33;96241.19;10434894;28;20225;-65
2024/03/09 16:45:02;;;;;;;7.60;6.35;;;13.20;92.30;;;13.95;49.14;96243.69;10437035;28;20767;-65
2024/03/09 16:50:10;;;;;;;6.88;6.25;;;13.10;93.50;;;13.68;50.69;96240.66;10436276;28;20225;-66
2024/03/09 16:55:15;;;;;;;7.55;6.85;;;12.90;94.90;;;13.56;50.80;96242.97;10434041;28;20239;-66
2024/03/09 17:00:21;;;;;;;8.75;7.88;;;12.70;95.10;;;13.44;51.23;96246.16;10433130;28;20276;-67
2024/03/09 17:05:29;;;;;;;7.03;6.43;;;12.60;96.20;;;13.21;52.42;96236.25;10435506;28;20314;-66
2024/03/09 17:10:36;;;;;;;8.63;7.10;;;12.40;96.60;;;13.08;52.55;96242.00;10433994;28;20220;-66
2024/03/09 17:15:42;;;;;;;7.60;6.93;;;12.20;96.90;;;12.91;53.07;96244.19;10435047;28;20661;-66
2024/03/09 17:20:45;;;;;;;7.10;6.40;;;12.10;97.60;;;12.72;55.70;96245.47;10426864;28;20213;-66
2024/03/09 17:25:51;;;;;;;7.50;6.80;;;11.80;99.90;;;12.51;57.12;96250.13;10435727;28;20324;-67
2024/03/09 17:30:56;;;;;;;7.40;6.45;;;11.60;99.90;;;12.32;59.72;96256.50;10432242;28;20312;-67
2024/03/09 17:36:00;;;;;;;7.13;6.43;;;11.40;99.90;;;12.11;60.32;96267.97;10434700;28;20712;-67
2024/03/09 17:41:05;;;;;;;7.10;6.32;;;11.20;99.90;;;11.99;60.69;96261.63;10430063;28;20608;-67
2024/03/09 17:46:09;;;;;;;7.10;6.40;;;11.00;99.90;;;11.93;62.63;96257.22;10432424;28;20240;-67
2024/03/09 17:51:15;;;;;;;8.52;7.35;;;11.00;99.90;;;11.60;64.42;96252.94;10434517;28;20689;-66
2024/03/09 17:56:22;;;;;;;7.90;7.13;;;10.70;99.90;;;11.48;65.49;96252.63;10431717;28;20244;-67
2024/03/09 18:01:27;;;;;;;7.70;7.00;;;10.50;99.90;;;11.28;67.25;96247.81;10432873;28;20221;-67
2024/03/09 18:06:31;;;;;;;8.43;7.45;;;10.40;99.90;;;11.08;68.41;96246.38;10445403;22;20278;-67
2024/03/09 18:11:35;;;;;;;8.32;7.53;;;10.20;99.90;;;10.94;68.41;96240.88;10433973;28;20256;-66
2024/03/09 18:16:39;;;;;;;8.43;7.65;;;10.10;99.90;;;10.77;68.51;96230.13;10403638;28;20225;-65
2024/03/09 18:21:42;;;;;;;8.27;7.47;;;10.10;99.90;;;10.90;67.58;96226.28;10394218;28;20234;-69
2024/03/09 18:26:46;;;;;;;9.02;8.20;;;10.20;99.90;;;10.83;68.17;96212.44;10393579;28;20251;-66
2024/03/09 18:31:50;;;;;;;9.23;8.32;;;10.00;99.90;;;10.92;67.11;96210.97;10392537;28;20256;-66
2024/03/09 18:36:55;;;;;;;9.63;8.68;;;10.10;99.90;;;10.82;67.68;96215.81;10392480;28;20229;-66
2024/03/09 18:42:00;;;;;;;10.02;9.02;;;10.00;99.90;;;10.66;69.33;96218.72;10393670;28;21596;-66
2024/03/09 18:47:06;;;;;;;11.48;10.23;;;9.80;99.90;;;10.50;71.19;96211.41;10432123;28;20237;-67
2024/03/09 18:52:09;;;;;;;10.52;9.43;;;9.60;99.90;;;10.33;71.81;96203.22;10433442;28;20224;-66
2024/03/09 18:57:14;;;;;;;10.10;9.20;;;9.50;99.90;;;10.34;70.90;96195.63;10434580;28;20316;-67
2024/03/09 19:02:17;;;;;;;10.63;9.60;;;9.50;99.90;;;10.41;71.61;96189.00;10430542;28;20221;-66
2024/03/09 19:07:22;;;;;;;13.02;11.63;;;9.50;99.90;;;10.14;72.14;96189.88;10433616;28;20256;-68
2024/03/09 19:12:26;;;;;;;14.35;12.95;;;9.40;99.90;;;10.05;73.00;96183.63;10433707;28;20224;-67
2024/03/09 19:17:30;;;;;;;12.20;11.02;;;9.20;99.90;;;9.92;72.82;96178.09;10433267;28;20359;-69
2024/03/09 19:22:34;;;;;;;12.35;11.13;;;9.10;99.90;;;9.84;73.84;96166.81;10431400;28;20265;-66
2024/03/09 19:27:40;;;;;;;12.52;11.23;;;9.00;99.90;;;9.88;72.66;96153.31;10432280;28;20235;-67
2024/03/09 19:32:45;;;;;;;15.05;13.30;;;9.00;99.90;;;9.77;74.61;96141.03;10428039;28;20228;-67
2024/03/09 19:37:49;;;;;;;13.45;11.73;;;8.90;99.90;;;9.62;75.23;96136.31;10429340;28;20444;-70
2024/03/09 19:42:54;;;;;;;11.40;10.20;;;8.80;99.90;;;9.51;74.56;96143.59;10430790;28;20282;-67
2024/03/09 19:47:58;;;;;;;15.55;11.57;;;8.70;99.90;;;9.45;75.95;96154.47;10430771;28;20225;-67
2024/03/09 19:53:02;;;;;;;27.73;21.35;;;8.60;99.90;;;9.25;75.81;96146.16;10432343;28;20839;-67
2024/03/09 19:58:08;;;;;;;21.45;17.77;;;8.40;99.90;;;9.22;75.66;96155.38;10432372;28;20229;-69
2024/03/09 20:03:12;;;;;;;20.42;18.20;;;8.30;99.90;;;9.12;79.06;96136.31;10430406;28;20228;-67
2024/03/09 20:08:15;;;;;;;20.08;17.98;;;8.10;99.90;;;8.88;80.45;96133.81;10437102;28;20343;-66
2024/03/09 20:13:20;;;;;;;19.95;17.95;;;7.90;99.90;;;8.61;81.51;96132.81;10441242;28;20797;-68
2024/03/09 20:18:23;;;;;;;19.30;17.38;;;7.70;99.90;;;8.52;81.28;96133.34;10438867;28;20302;-66
2024/03/09 20:23:26;;;;;;;18.87;17.00;;;7.60;99.90;;;8.27;82.42;96124.78;10440543;28;20580;-67
2024/03/09 20:28:31;;;;;;;20.37;18.17;;;7.40;99.90;;;8.27;82.38;96127.31;10443822;28;20236;-69
2024/03/09 20:33:35;;;;;;;19.37;17.37;;;7.30;99.90;;;8.12;83.83;96127.56;10438559;28;20252;-67
2024/03/09 20:38:38;;;;;;;15.47;13.83;;;7.30;99.90;;;8.06;84.88;96129.88;10438605;28;20251;-68
2024/03/09 20:43:42;;;;;;;18.30;16.40;;;7.10;99.90;;;7.89;85.42;96129.22;10437694;28;20608;-67
2024/03/09 20:48:46;;;;;;;16.30;14.60;;;7.00;99.90;;;7.62;85.91;96111.22;10439600;28;20229;-67
2024/03/09 20:53:50;;;;;;;16.07;14.37;;;6.80;99.90;;;7.70;86.24;96118.28;10438905;28;20596;-68
2024/03/09 20:58:56;;;;;;;15.00;13.47;;;6.90;99.90;;;7.38;87.94;96116.22;10438643;28;20232;-67
2024/03/09 21:03:59;;;;;;;12.50;11.30;;;6.60;99.90;;;7.40;87.38;96095.91;10437872;28;20240;-67